Time;durP1;ratioP1;P1;durP2;ratioP2;P2;SDS_P1;SDS_P2;PMS_P1;PMS_P2;Temp;Humidity;BMP_temperature;BMP_pressure;BME280_temperature;BME280_humidity;BME280_pressure;Samples;Min_cycle;Max_cycle;Signal;HPM_P1;HPM_P2
2021/12/25 00:01:19;;;;;;;9.80;5.30;;;3.90;91.00;;;;;;5020041;28;20099;-83
2021/12/25 00:03:44;;;;;;;9.43;4.53;;;3.90;91.30;;;;;;5002458;28;20049;-83
2021/12/25 00:06:10;;;;;;;8.85;4.75;;;3.90;91.00;;;;;;4995342;28;20041;-84
2021/12/25 00:08:36;;;;;;;9.07;5.07;;;3.90;91.00;;;;;;5003247;28;20045;-83
2021/12/25 00:11:04;;;;;;;8.65;4.60;;;3.90;91.00;;;;;;5019113;28;20045;-83
2021/12/25 00:13:30;;;;;;;6.60;4.93;;;3.80;90.90;;;;;;5019991;28;20076;-83
2021/12/25 00:15:56;;;;;;;8.43;4.13;;;3.80;90.90;;;;;;5001439;28;20126;-83
2021/12/25 00:18:22;;;;;;;6.15;3.85;;;3.80;90.90;;;;;;5020898;28;20044;-82
2021/12/25 00:20:48;;;;;;;8.15;4.10;;;3.80;90.90;;;;;;5016891;28;20123;-83
2021/12/25 00:23:14;;;;;;;11.63;4.53;;;3.70;90.90;;;;;;5023770;28;20074;-83
2021/12/25 00:25:44;;;;;;;7.10;3.90;;;3.70;90.90;;;;;;5003119;28;20036;-85
2021/12/25 00:31:06;;;;;;;10.68;3.95;;;3.60;90.80;;;;;;5016875;28;20172;-83
2021/12/25 00:33:55;;;;;;;9.57;4.10;;;3.60;90.90;;;;;;5005932;28;20049;-83
2021/12/25 00:36:22;;;;;;;10.20;4.18;;;3.60;90.80;;;;;;5002733;28;20044;-84
2021/12/25 00:38:47;;;;;;;7.55;3.85;;;3.60;90.80;;;;;;5004073;28;20064;-83
2021/12/25 00:41:16;;;;;;;8.13;4.13;;;3.60;90.80;;;;;;5020900;28;20470;-85
2021/12/25 00:43:41;;;;;;;7.85;3.58;;;3.60;90.80;;;;;;5018264;28;20049;-83
2021/12/25 00:46:07;;;;;;;7.45;4.25;;;3.50;90.70;;;;;;5003730;28;20469;-83
2021/12/25 00:48:36;;;;;;;8.20;3.40;;;3.50;90.70;;;;;;4986521;28;20052;-83
2021/12/25 00:51:03;;;;;;;9.18;3.90;;;3.50;90.70;;;;;;4986808;28;20532;-83
2021/12/25 00:53:28;;;;;;;10.10;3.70;;;3.50;90.60;;;;;;4986454;28;20136;-84
2021/12/25 00:55:54;;;;;;;8.15;3.63;;;3.40;90.60;;;;;;5000913;28;20123;-83
2021/12/25 00:58:20;;;;;;;9.32;3.80;;;3.40;90.60;;;;;;5003532;28;20099;-83
2021/12/25 01:00:45;;;;;;;6.25;3.50;;;3.40;90.60;;;;;;5004044;28;20071;-83
2021/12/25 01:03:11;;;;;;;8.07;3.60;;;3.30;90.50;;;;;;4987901;28;20049;-83
2021/12/25 01:05:37;;;;;;;6.28;3.58;;;3.30;90.40;;;;;;5003009;28;20036;-82
2021/12/25 01:08:04;;;;;;;7.43;3.28;;;3.30;90.50;;;;;;4987841;28;20048;-83
2021/12/25 01:10:29;;;;;;;7.97;3.53;;;3.30;90.50;;;;;;4976111;28;20194;-83
2021/12/25 01:13:08;;;;;;;8.32;3.97;;;3.20;90.40;;;;;;4987679;28;20085;-84
2021/12/25 01:15:53;;;;;;;6.95;3.40;;;3.30;90.40;;;;;;4990488;28;20481;-83
2021/12/25 01:31:05;;;;;;;5.78;2.60;;;3.00;90.10;;;;;;5004919;28;20470;-83
2021/12/25 01:38:57;;;;;;;8.45;2.50;;;2.80;90.10;;;;;;5001703;28;20049;-83
2021/12/25 01:49:34;;;;;;;7.30;2.22;;;2.70;90.00;;;;;;5023435;28;20531;-83
2021/12/25 01:52:00;;;;;;;5.60;1.92;;;2.60;89.90;;;;;;5002501;28;20155;-83
2021/12/25 01:54:25;;;;;;;4.95;1.92;;;2.60;90.00;;;;;;4991080;28;20503;-84
2021/12/25 01:56:51;;;;;;;5.60;2.38;;;2.60;90.00;;;;;;5005759;28;20481;-82
2021/12/25 01:59:17;;;;;;;5.15;1.85;;;2.50;89.90;;;;;;5006323;28;20552;-83
2021/12/25 02:01:43;;;;;;;4.93;1.88;;;2.50;89.90;;;;;;5005573;28;20447;-83
2021/12/25 02:04:09;;;;;;;4.82;1.80;;;2.50;90.00;;;;;;5006225;28;20044;-83
2021/12/25 02:06:37;;;;;;;7.55;2.20;;;2.40;89.70;;;;;;5005426;28;20070;-83
2021/12/25 02:09:04;;;;;;;4.72;2.38;;;2.40;89.70;;;;;;5023092;28;20048;-84
2021/12/25 02:11:30;;;;;;;6.80;2.17;;;2.30;89.80;;;;;;5005490;28;20048;-87
2021/12/25 02:13:55;;;;;;;6.00;2.10;;;2.30;89.90;;;;;;5022273;28;20121;-84
2021/12/25 02:16:25;;;;;;;5.20;1.63;;;2.30;89.80;;;;;;5005802;28;20048;-83
2021/12/25 02:18:59;;;;;;;3.50;1.52;;;2.30;89.80;;;;;;5022071;28;20098;-84
2021/12/25 02:21:31;;;;;;;5.10;2.10;;;2.20;89.80;;;;;;5039813;28;20468;-83
2021/12/25 02:23:57;;;;;;;3.08;1.30;;;2.20;89.80;;;;;;5006966;28;20493;-83
2021/12/25 02:26:24;;;;;;;6.38;1.88;;;2.10;89.70;;;;;;5021736;28;20547;-83
2021/12/25 02:28:53;;;;;;;3.80;1.52;;;2.10;89.60;;;;;;5005404;28;20048;-84
2021/12/25 02:31:19;;;;;;;8.90;1.63;;;2.00;89.40;;;;;;5022367;28;20048;-83
2021/12/25 02:33:44;;;;;;;7.07;1.90;;;2.10;89.60;;;;;;5004873;28;20040;-83
2021/12/25 02:36:11;;;;;;;3.13;1.30;;;2.00;89.50;;;;;;5037954;28;20044;-82
2021/12/25 02:38:39;;;;;;;4.25;1.60;;;2.00;89.60;;;;;;5004607;28;20059;-82
2021/12/25 02:41:05;;;;;;;6.38;1.63;;;1.90;89.60;;;;;;5005549;28;20079;-82
2021/12/25 02:43:31;;;;;;;3.83;1.40;;;1.90;89.40;;;;;;5005412;28;20044;-82
2021/12/25 02:46:02;;;;;;;6.13;1.90;;;1.90;89.40;;;;;;5001038;28;20061;-82
2021/12/25 02:48:27;;;;;;;4.93;1.65;;;1.80;89.20;;;;;;5002892;28;20080;-82
2021/12/25 02:50:53;;;;;;;5.13;1.42;;;1.80;89.30;;;;;;5017678;28;20083;-82
2021/12/25 02:53:21;;;;;;;5.53;1.52;;;1.80;89.30;;;;;;5018162;28;20044;-81
2021/12/25 02:55:47;;;;;;;5.55;1.80;;;1.80;89.30;;;;;;5001311;28;20040;-82
2021/12/25 02:58:13;;;;;;;6.22;2.03;;;1.70;89.40;;;;;;5001325;28;20051;-82
2021/12/25 03:00:51;;;;;;;4.65;1.65;;;1.80;89.30;;;;;;5001216;28;20135;-85
2021/12/25 03:03:17;;;;;;;6.03;1.98;;;1.70;89.20;;;;;;5019140;28;20047;-82
2021/12/25 03:05:43;;;;;;;4.28;1.73;;;1.60;89.80;;;;;;5000860;28;20041;-82
2021/12/25 03:08:10;;;;;;;3.92;1.60;;;1.60;89.10;;;;;;5004169;28;20103;-82
2021/12/25 03:10:36;;;;;;;4.28;2.20;;;1.60;89.10;;;;;;5005071;28;20088;-82
2021/12/25 03:13:17;;;;;;;3.78;1.52;;;1.50;89.10;;;;;;5005098;28;20139;-82
2021/12/25 03:15:47;;;;;;;4.63;1.42;;;1.50;89.00;;;;;;5025460;28;20045;-83
2021/12/25 03:18:21;;;;;;;4.93;1.40;;;1.50;89.00;;;;;;5021864;28;20135;-82
2021/12/25 03:20:48;;;;;;;4.22;1.25;;;1.40;88.80;;;;;;5005309;28;20048;-82
2021/12/25 03:23:15;;;;;;;6.10;1.55;;;1.40;88.80;;;;;;5005432;28;20090;-82
2021/12/25 03:25:42;;;;;;;4.85;1.50;;;1.40;88.70;;;;;;5005428;28;20067;-84
2021/12/25 03:28:07;;;;;;;3.00;1.17;;;1.40;88.80;;;;;;5021514;28;20080;-82
2021/12/25 03:30:37;;;;;;;2.20;1.08;;;1.30;88.60;;;;;;5019880;28;20080;-82
2021/12/25 03:33:08;;;;;;;3.65;1.10;;;1.30;88.50;;;;;;5005691;28;20044;-82
2021/12/25 03:35:34;;;;;;;2.88;1.20;;;1.20;88.40;;;;;;5005151;28;20056;-82
2021/12/25 03:38:07;;;;;;;3.22;1.30;;;1.30;88.50;;;;;;5021155;28;20485;-82
2021/12/25 03:40:33;;;;;;;4.65;1.35;;;1.20;88.40;;;;;;5021656;28;20352;-83
2021/12/25 03:42:59;;;;;;;4.38;1.70;;;1.20;88.40;;;;;;5004491;28;20052;-83
2021/12/25 03:45:31;;;;;;;4.35;1.10;;;1.20;88.30;;;;;;5004644;28;20049;-82
2021/12/25 03:48:15;;;;;;;4.80;1.40;;;1.10;88.10;;;;;;4989021;28;20183;-82
2021/12/25 03:58:57;;;;;;;3.47;1.13;;;1.00;87.90;;;;;;5008797;28;20049;-82
2021/12/25 04:06:54;;;;;;;4.95;1.13;;;0.90;87.20;;;;;;5025168;28;20041;-81
2021/12/25 04:09:29;;;;;;;2.75;1.15;;;0.90;87.30;;;;;;5040531;28;20055;-82
2021/12/25 04:11:57;;;;;;;3.85;1.40;;;0.80;87.10;;;;;;4988681;28;20053;-82
2021/12/25 04:14:26;;;;;;;4.93;1.30;;;0.80;87.20;;;;;;5022471;28;20120;-82
2021/12/25 04:16:55;;;;;;;2.70;1.20;;;0.80;87.00;;;;;;5004087;28;20044;-82
2021/12/25 04:19:22;;;;;;;3.22;0.80;;;0.80;87.00;;;;;;4988406;28;20136;-82
2021/12/25 04:22:01;;;;;;;3.88;1.55;;;0.70;86.90;;;;;;4988391;28;20045;-82
2021/12/25 04:24:40;;;;;;;3.85;1.50;;;0.70;86.80;;;;;;4994233;28;20087;-81
2021/12/25 04:27:10;;;;;;;2.40;1.10;;;0.70;86.90;;;;;;5003936;28;20049;-82
2021/12/25 04:29:46;;;;;;;3.78;1.50;;;0.70;86.80;;;;;;4989007;28;20098;-82
2021/12/25 05:02:50;;;;;;;2.90;0.70;;;0.30;86.30;;;;;;5045367;28;20049;-81
2021/12/25 05:05:21;;;;;;;1.55;0.47;;;0.30;86.20;;;;;;5026613;28;20492;-81
2021/12/25 05:07:53;;;;;;;3.55;1.38;;;0.20;86.10;;;;;;5024300;28;20055;-82
2021/12/25 05:10:25;;;;;;;2.30;1.23;;;0.20;86.20;;;;;;5009242;28;20174;-81
2021/12/25 05:12:51;;;;;;;2.40;0.57;;;0.20;86.30;;;;;;5006521;28;20150;-82
2021/12/25 05:15:27;;;;;;;1.75;0.80;;;0.20;86.20;;;;;;5026404;28;20048;-81
2021/12/25 05:17:53;;;;;;;1.77;0.93;;;0.10;86.40;;;;;;5006392;28;20047;-82
2021/12/25 05:20:19;;;;;;;2.63;0.73;;;0.10;86.10;;;;;;5005261;28;20080;-81
2021/12/25 05:22:48;;;;;;;2.33;0.85;;;0.10;86.10;;;;;;5006205;28;20140;-81
2021/12/25 05:25:15;;;;;;;2.90;0.98;;;0.10;86.10;;;;;;5038272;28;20105;-81
2021/12/25 05:27:55;;;;;;;3.28;1.02;;;0.00;85.90;;;;;;5008612;28;20485;-81
2021/12/25 05:30:21;;;;;;;3.50;1.23;;;0.00;86.00;;;;;;5006382;28;20048;-81
2021/12/25 05:32:47;;;;;;;2.63;0.90;;;0.00;85.90;;;;;;5005479;28;20048;-81
2021/12/25 05:35:15;;;;;;;2.65;1.00;;;0.00;86.10;;;;;;5005638;28;20047;-82
2021/12/25 05:37:44;;;;;;;1.70;0.88;;;0.00;86.10;;;;;;5006644;28;20048;-81
2021/12/25 05:40:12;;;;;;;1.35;0.82;;;0.00;86.00;;;;;;5021819;28;20040;-82
2021/12/25 05:42:39;;;;;;;2.95;0.80;;;-0.10;86.70;;;;;;5022265;28;20052;-81
2021/12/25 05:45:05;;;;;;;2.42;1.50;;;-0.10;86.00;;;;;;5021358;28;20132;-84
2021/12/25 05:47:34;;;;;;;2.58;1.10;;;-0.10;86.00;;;;;;5007072;28;20123;-81
2021/12/25 05:50:00;;;;;;;2.25;0.93;;;-0.10;86.10;;;;;;5005365;28;20084;-81
2021/12/25 05:52:26;;;;;;;2.45;0.98;;;-0.20;86.00;;;;;;5004966;28;20048;-81
2021/12/25 05:54:52;;;;;;;4.18;1.00;;;-0.20;85.90;;;;;;5021258;28;20053;-81
2021/12/25 05:57:19;;;;;;;5.85;1.00;;;-0.20;86.00;;;;;;5004693;28;20139;-83
2021/12/25 05:59:45;;;;;;;3.00;1.00;;;-0.20;85.90;;;;;;5005473;28;20041;-82
2021/12/25 06:02:18;;;;;;;1.45;0.70;;;-0.20;85.90;;;;;;5007202;28;20182;-81
2021/12/25 06:04:44;;;;;;;2.95;1.00;;;-0.20;85.90;;;;;;5021768;28;20074;-81
2021/12/25 06:07:13;;;;;;;2.50;1.15;;;-0.30;85.90;;;;;;5021062;28;20151;-85
2021/12/25 06:09:39;;;;;;;2.17;0.90;;;-0.30;85.80;;;;;;5005587;28;20048;-82
2021/12/25 06:12:11;;;;;;;1.50;0.90;;;-0.30;85.90;;;;;;5001475;28;20051;-86
2021/12/25 06:14:44;;;;;;;3.53;1.10;;;-0.40;86.10;;;;;;5005495;28;20070;-81
2021/12/25 06:17:10;;;;;;;2.50;1.23;;;-0.40;85.80;;;;;;5015444;28;20053;-85
2021/12/25 06:19:35;;;;;;;4.15;1.52;;;-0.40;85.90;;;;;;4998074;28;20051;-81
2021/12/25 06:22:01;;;;;;;3.08;1.65;;;-0.40;85.80;;;;;;4999135;28;20052;-81
2021/12/25 06:24:29;;;;;;;4.78;1.60;;;-0.40;85.90;;;;;;5001129;28;20049;-81
2021/12/25 06:26:55;;;;;;;3.60;1.40;;;-0.30;85.90;;;;;;5017922;28;20370;-81
2021/12/25 06:29:23;;;;;;;2.45;1.17;;;-0.50;85.80;;;;;;5033963;28;20060;-81
2021/12/25 06:31:50;;;;;;;2.80;1.23;;;-0.50;85.70;;;;;;5002475;28;20048;-84
2021/12/25 06:34:16;;;;;;;1.60;1.10;;;-0.50;85.60;;;;;;5045282;28;20049;-82
2021/12/25 06:36:46;;;;;;;2.60;1.00;;;-0.50;85.50;;;;;;4998968;28;20063;-82
2021/12/25 06:39:14;;;;;;;3.60;1.30;;;-0.50;85.50;;;;;;5005583;28;20040;-83
2021/12/25 06:41:44;;;;;;;1.65;1.10;;;-0.60;85.40;;;;;;5003526;28;20044;-83
2021/12/25 06:44:11;;;;;;;2.10;0.70;;;-0.60;86.10;;;;;;5037912;28;20044;-82
2021/12/25 06:46:41;;;;;;;1.65;0.75;;;-0.50;85.40;;;;;;5020151;28;20060;-81
2021/12/25 06:49:08;;;;;;;0.80;0.60;;;-0.60;85.30;;;;;;5004617;28;20074;-82
2021/12/25 06:51:35;;;;;;;1.27;0.75;;;-0.60;85.20;;;;;;5004052;28;20561;-82
2021/12/25 06:54:07;;;;;;;2.22;1.45;;;-0.60;85.10;;;;;;5004419;28;20059;-81
2021/12/25 06:56:32;;;;;;;1.60;0.77;;;-0.70;85.10;;;;;;5003546;28;20052;-81
2021/12/25 06:59:01;;;;;;;1.30;0.68;;;-0.70;85.00;;;;;;5000363;28;20045;-83
2021/12/25 07:01:27;;;;;;;1.63;0.80;;;-0.70;84.90;;;;;;5020536;28;20200;-81
2021/12/25 07:03:53;;;;;;;1.88;0.60;;;-0.70;84.90;;;;;;5017996;28;20484;-82
2021/12/25 07:06:21;;;;;;;1.30;1.00;;;-0.80;84.70;;;;;;5003784;28;20060;-85
2021/12/25 07:08:49;;;;;;;1.95;0.65;;;-0.70;84.90;;;;;;5004780;28;20573;-82
2021/12/25 07:11:18;;;;;;;1.48;0.63;;;-0.70;84.80;;;;;;5003771;28;20070;-83
2021/12/25 07:13:46;;;;;;;3.55;0.90;;;-0.80;84.60;;;;;;5005492;28;20493;-83
2021/12/25 07:16:11;;;;;;;2.28;1.00;;;-0.80;84.60;;;;;;4998876;28;20088;-82
2021/12/25 07:18:48;;;;;;;1.95;0.70;;;-0.80;84.70;;;;;;5017086;28;20142;-82
2021/12/25 07:21:17;;;;;;;2.10;0.90;;;-0.80;84.60;;;;;;5004418;28;20041;-82
2021/12/25 07:23:43;;;;;;;3.22;1.02;;;-0.90;84.50;;;;;;5004130;28;20094;-83
2021/12/25 07:26:22;;;;;;;3.40;1.27;;;-0.90;84.40;;;;;;4999360;28;20041;-83
2021/12/25 07:28:48;;;;;;;1.25;0.60;;;-1.00;84.40;;;;;;5018043;28;20185;-83
2021/12/25 07:31:26;;;;;;;;;;;;;;;;;;;;;
2021/12/25 07:34:03;;;;;;;1.60;0.52;;;-0.90;84.40;;;;;;5021716;28;20136;-83
2021/12/25 07:36:41;;;;;;;2.33;0.57;;;-1.00;84.10;;;;;;5020421;28;20127;-82
2021/12/25 07:39:18;;;;;;;3.75;1.10;;;-1.00;84.20;;;;;;5024148;28;20059;-82
2021/12/25 07:41:45;;;;;;;2.05;0.55;;;-1.00;84.20;;;;;;5021465;28;20052;-82
2021/12/25 07:44:14;;;;;;;0.93;0.52;;;-1.00;84.00;;;;;;5015862;28;20037;-83
2021/12/25 07:46:42;;;;;;;2.35;0.70;;;-1.10;84.00;;;;;;5003939;28;20052;-82
2021/12/25 07:49:18;;;;;;;2.35;0.80;;;-1.10;84.00;;;;;;5020581;28;20056;-82
2021/12/25 07:51:49;;;;;;;1.15;0.60;;;-1.10;83.80;;;;;;5017896;28;20107;-82
2021/12/25 07:54:15;;;;;;;3.47;0.63;;;-1.10;83.80;;;;;;4988276;28;20435;-82
2021/12/25 07:56:44;;;;;;;2.25;0.52;;;-1.10;83.70;;;;;;4987522;28;20143;-82
2021/12/25 07:59:10;;;;;;;1.52;0.60;;;-1.10;83.80;;;;;;4988593;28;20106;-82
2021/12/25 08:01:45;;;;;;;2.35;0.90;;;-1.20;83.60;;;;;;4987054;28;20060;-82
2021/12/25 08:04:13;;;;;;;2.92;0.90;;;-1.20;83.70;;;;;;4994650;28;20102;-82
2021/12/25 08:06:42;;;;;;;5.32;0.80;;;-1.20;83.40;;;;;;5023512;28;20037;-82
2021/12/25 08:09:08;;;;;;;1.02;0.50;;;-1.10;83.60;;;;;;5008797;28;20475;-81
2021/12/25 08:11:41;;;;;;;2.88;0.63;;;-1.20;83.50;;;;;;5022959;28;20053;-81
2021/12/25 08:14:20;;;;;;;1.52;0.77;;;-1.20;83.30;;;;;;5009488;28;20048;-82
2021/12/25 08:16:46;;;;;;;2.10;0.98;;;-1.20;83.40;;;;;;5008855;28;20052;-81
2021/12/25 08:19:12;;;;;;;1.83;0.73;;;-1.20;83.40;;;;;;5007348;28;20055;-81
2021/12/25 08:21:55;;;;;;;0.88;0.70;;;-1.20;83.20;;;;;;5019337;28;20090;-81
2021/12/25 08:24:26;;;;;;;2.35;0.55;;;-1.20;83.20;;;;;;5010110;28;20065;-81
2021/12/25 08:26:57;;;;;;;3.13;0.57;;;-1.20;83.30;;;;;;5006592;28;20032;-81
2021/12/25 08:29:31;;;;;;;2.65;0.70;;;-1.20;83.20;;;;;;5005211;28;20044;-81
2021/12/25 08:32:06;;;;;;;3.05;0.70;;;-1.20;83.20;;;;;;5002690;28;20048;-81
2021/12/25 08:34:35;;;;;;;1.63;0.45;;;-1.30;83.00;;;;;;5005355;28;20068;-81
2021/12/25 08:37:04;;;;;;;3.08;0.80;;;-1.30;83.90;;;;;;5012177;28;20094;-81
2021/12/25 08:39:30;;;;;;;3.33;1.08;;;-1.30;83.00;;;;;;5007372;28;20049;-83
2021/12/25 08:42:09;;;;;;;4.75;1.20;;;-1.30;83.10;;;;;;5000133;28;20383;-83
2021/12/25 08:44:39;;;;;;;2.03;0.85;;;-1.20;83.20;;;;;;5001136;28;20516;-87
2021/12/25 08:47:34;;;;;;;1.80;0.70;;;-1.20;83.30;;;;;;5020052;28;20052;-83
2021/12/25 08:50:10;;;;;;;2.00;0.80;;;-1.20;83.20;;;;;;5020068;28;20124;-82
2021/12/25 08:52:36;;;;;;;2.22;0.95;;;-1.20;83.60;;;;;;5021905;28;20060;-88
2021/12/25 08:55:05;;;;;;;4.50;1.02;;;-1.20;83.40;;;;;;5005092;28;20051;-83
2021/12/25 08:57:31;;;;;;;5.68;1.20;;;-1.20;83.20;;;;;;5013163;28;20068;-83
2021/12/25 08:59:57;;;;;;;3.40;0.95;;;-1.20;83.20;;;;;;5017393;28;20233;-83
2021/12/25 09:02:25;;;;;;;3.28;0.80;;;-1.20;83.20;;;;;;5016405;28;20049;-82
2021/12/25 09:04:51;;;;;;;1.90;0.80;;;-1.20;83.20;;;;;;5003687;28;20052;-82
2021/12/25 09:07:19;;;;;;;1.25;0.70;;;-1.20;83.20;;;;;;5020956;28;20504;-81
2021/12/25 09:09:47;;;;;;;2.97;0.60;;;-1.20;83.10;;;;;;5004398;28;20078;-82
2021/12/25 09:12:16;;;;;;;1.60;0.70;;;-1.20;82.90;;;;;;5019661;28;20079;-82
2021/12/25 09:14:44;;;;;;;3.83;0.70;;;-1.20;83.10;;;;;;5017833;28;20057;-82
2021/12/25 09:17:10;;;;;;;3.50;0.80;;;-1.20;83.00;;;;;;5037613;28;20481;-83
2021/12/25 09:19:36;;;;;;;3.88;0.90;;;-1.20;83.20;;;;;;5022786;28;20454;-83
2021/12/25 09:22:02;;;;;;;5.15;1.00;;;-1.20;83.40;;;;;;5005521;28;20156;-82
2021/12/25 09:24:28;;;;;;;4.43;0.85;;;-1.10;84.10;;;;;;5003296;28;20041;-79
2021/12/25 09:26:53;;;;;;;4.35;1.05;;;-1.10;83.60;;;;;;5012897;28;20041;-81
2021/12/25 09:29:20;;;;;;;3.45;1.08;;;-1.00;84.30;;;;;;5006657;28;20056;-82
2021/12/25 09:31:46;;;;;;;3.38;0.98;;;-1.00;83.40;;;;;;5021790;28;20055;-83
2021/12/25 09:34:16;;;;;;;2.05;0.90;;;-1.00;83.60;;;;;;4991630;28;20042;-83
2021/12/25 09:36:42;;;;;;;1.85;0.90;;;-1.00;83.50;;;;;;5004372;28;20067;-82
2021/12/25 09:39:09;;;;;;;1.38;0.90;;;-1.00;83.50;;;;;;5003967;28;20063;-83
2021/12/25 09:41:35;;;;;;;3.58;0.73;;;-1.00;83.50;;;;;;5021316;28;20123;-82
2021/12/25 09:44:02;;;;;;;2.80;0.88;;;-0.90;83.70;;;;;;5000775;28;20061;-82
2021/12/25 09:46:34;;;;;;;3.85;1.05;;;-0.90;83.90;;;;;;5021377;28;20052;-84
2021/12/25 09:49:00;;;;;;;1.88;0.70;;;-0.90;83.70;;;;;;5004736;28;20045;-83
2021/12/25 09:51:25;;;;;;;3.08;0.95;;;-0.90;83.40;;;;;;5006393;28;20059;-82
2021/12/25 09:53:55;;;;;;;2.72;1.27;;;-0.90;83.40;;;;;;5003146;28;20494;-87
2021/12/25 09:56:23;;;;;;;2.10;0.80;;;-0.90;83.30;;;;;;5036644;28;20059;-81
2021/12/25 09:58:49;;;;;;;3.15;0.70;;;-0.80;83.60;;;;;;5001272;28;20045;-82
2021/12/25 10:01:36;;;;;;;4.00;1.25;;;-0.80;83.50;;;;;;5023375;28;20135;-80
2021/12/25 10:04:02;;;;;;;4.18;1.17;;;-0.80;83.70;;;;;;5035188;28;20045;-80
2021/12/25 10:06:33;;;;;;;2.58;1.00;;;-0.70;83.80;;;;;;5021199;28;20079;-80
2021/12/25 10:09:33;;;;;;;3.60;1.15;;;-0.70;83.80;;;;;;5006208;28;20078;-81
2021/12/25 10:12:10;;;;;;;2.88;1.05;;;-0.60;84.00;;;;;;5035451;28;20049;-82
2021/12/25 10:14:37;;;;;;;2.42;0.82;;;-0.60;83.80;;;;;;5017980;28;20048;-82
2021/12/25 10:17:21;;;;;;;3.67;1.40;;;-0.60;83.70;;;;;;5001173;28;20041;-82
2021/12/25 10:20:03;;;;;;;4.68;0.88;;;-0.50;83.60;;;;;;5003379;28;20057;-82
2021/12/25 10:22:29;;;;;;;4.53;1.13;;;-0.50;83.60;;;;;;5021678;28;20052;-83
2021/12/25 10:25:07;;;;;;;2.05;1.35;;;-0.40;83.60;;;;;;5005202;28;20048;-82
2021/12/25 10:27:33;;;;;;;2.50;1.00;;;-0.40;83.60;;;;;;5005680;28;20048;-82
2021/12/25 10:30:04;;;;;;;2.90;0.95;;;-0.30;83.40;;;;;;5020645;28;20037;-88
2021/12/25 10:32:30;;;;;;;3.13;1.08;;;-0.30;83.20;;;;;;5013908;28;20049;-83
2021/12/25 10:34:56;;;;;;;3.70;1.02;;;-0.10;84.20;;;;;;5003702;28;20051;-84
2021/12/25 10:37:22;;;;;;;2.05;1.02;;;-0.10;84.60;;;;;;5006962;28;20356;-86
2021/12/25 10:39:48;;;;;;;3.17;0.70;;;0.00;83.90;;;;;;5036586;28;20412;-89
2021/12/25 10:42:20;;;;;;;3.72;1.40;;;0.00;83.60;;;;;;5032336;28;20127;-84
2021/12/25 10:44:55;;;;;;;4.90;1.38;;;0.10;83.20;;;;;;5018526;28;20358;-85
2021/12/25 10:47:22;;;;;;;6.50;1.63;;;0.20;83.20;;;;;;5024977;28;20091;-84
2021/12/25 10:49:53;;;;;;;3.80;1.20;;;0.20;83.10;;;;;;5007015;28;20377;-84
2021/12/25 10:52:32;;;;;;;3.28;1.30;;;0.30;83.20;;;;;;5009634;28;20068;-82
2021/12/25 10:55:14;;;;;;;2.65;1.42;;;0.40;83.00;;;;;;5044175;28;20139;-89
2021/12/25 10:57:41;;;;;;;3.20;1.23;;;0.40;83.10;;;;;;5046027;28;20440;-86
2021/12/25 11:00:22;;;;;;;2.92;1.20;;;0.50;83.00;;;;;;5017342;28;20134;-82
2021/12/25 11:03:02;;;;;;;3.50;1.10;;;0.60;82.90;;;;;;5027423;28;20044;-86
2021/12/25 11:05:33;;;;;;;2.72;1.02;;;0.60;82.80;;;;;;5001605;28;20456;-83
2021/12/25 11:08:19;;;;;;;3.60;1.77;;;0.70;83.00;;;;;;5006989;28;20044;-84
2021/12/25 11:10:46;;;;;;;3.88;1.33;;;0.90;82.10;;;;;;5018050;28;20045;-86
2021/12/25 11:13:24;;;;;;;1.95;0.88;;;0.90;82.10;;;;;;5036157;28;20041;-83
2021/12/25 11:15:55;;;;;;;4.45;1.67;;;1.20;82.10;;;;;;5021127;28;20044;-82
2021/12/25 11:18:21;;;;;;;5.50;1.23;;;1.50;81.20;;;;;;5024485;28;20203;-83
2021/12/25 11:20:47;;;;;;;3.63;1.20;;;2.10;80.80;;;;;;5005616;28;20071;-82
2021/12/25 11:23:14;;;;;;;5.10;1.50;;;2.70;79.50;;;;;;5031141;28;20041;-81
2021/12/25 11:25:43;;;;;;;2.72;1.20;;;3.40;77.90;;;;;;5032478;28;20045;-83
2021/12/25 11:28:10;;;;;;;3.90;1.10;;;4.20;75.90;;;;;;5043563;28;20100;-83
2021/12/25 11:30:45;;;;;;;3.85;1.33;;;4.90;74.00;;;;;;5032854;28;20078;-80
2021/12/25 11:33:10;;;;;;;4.50;1.55;;;5.60;72.20;;;;;;5010424;28;20123;-79
2021/12/25 11:35:37;;;;;;;3.70;1.40;;;6.30;70.50;;;;;;5039441;28;20087;-81
2021/12/25 11:38:04;;;;;;;5.80;1.42;;;7.00;69.00;;;;;;5021350;28;20396;-84
2021/12/25 11:40:30;;;;;;;3.05;1.00;;;7.50;67.50;;;;;;5023005;28;20053;-81
2021/12/25 11:42:58;;;;;;;4.32;1.35;;;8.00;66.40;;;;;;5006646;28;20131;-86
2021/12/25 11:45:29;;;;;;;3.15;0.75;;;8.50;65.20;;;;;;5007261;28;20393;-83
2021/12/25 11:47:57;;;;;;;2.47;1.10;;;9.00;64.40;;;;;;5001249;28;20094;-80
2021/12/25 11:50:41;;;;;;;2.28;0.80;;;9.40;63.40;;;;;;4993775;28;20125;-81
2021/12/25 11:53:43;;;;;;;3.95;1.00;;;9.80;62.50;;;;;;5020908;28;20090;-80
2021/12/25 11:58:52;;;;;;;4.70;1.40;;;10.40;61.80;;;;;;5054702;28;20098;-81
2021/12/25 12:01:35;;;;;;;2.92;0.75;;;10.60;61.20;;;;;;5025302;28;20076;-84
2021/12/25 12:04:03;;;;;;;3.47;1.17;;;10.90;61.10;;;;;;5056231;28;20036;-85
2021/12/25 12:06:47;;;;;;;3.80;1.15;;;11.10;61.20;;;;;;5006113;28;20477;-82
2021/12/25 12:09:26;;;;;;;2.42;1.30;;;11.10;59.00;;;;;;5049478;28;20040;-81
2021/12/25 12:12:04;;;;;;;3.42;1.05;;;11.10;59.80;;;;;;5021389;28;20087;-82
2021/12/25 12:14:31;;;;;;;4.35;1.48;;;11.10;59.40;;;;;;5056425;28;20039;-81
2021/12/25 12:16:59;;;;;;;4.50;1.50;;;11.20;60.60;;;;;;5007465;28;20052;-80
2021/12/25 12:19:35;;;;;;;4.13;1.30;;;11.30;59.90;;;;;;5005080;28;20040;-84
2021/12/25 12:22:22;;;;;;;4.65;1.15;;;11.40;58.80;;;;;;5037389;28;20041;-82
2021/12/25 12:27:54;;;;;;;3.08;1.00;;;11.40;57.90;;;;;;5052017;28;20090;-83
2021/12/25 12:30:36;;;;;;;3.80;1.00;;;11.40;59.30;;;;;;5017955;28;20490;-83
2021/12/25 12:33:14;;;;;;;3.10;0.90;;;11.30;58.30;;;;;;5019805;28;20045;-81
2021/12/25 12:35:41;;;;;;;2.58;1.10;;;11.10;58.80;;;;;;5027372;28;20489;-79
2021/12/25 12:41:23;;;;;;;5.68;1.20;;;10.60;55.30;;;;;;5048355;28;20041;-82
2021/12/25 12:44:03;;;;;;;4.63;1.25;;;10.30;58.00;;;;;;5034542;28;20049;-89
2021/12/25 12:46:47;;;;;;;2.47;0.93;;;10.00;58.80;;;;;;5034061;28;20056;-82
2021/12/25 12:49:16;;;;;;;3.28;1.17;;;9.90;58.10;;;;;;5051729;28;20060;-85
2021/12/25 12:51:42;;;;;;;3.83;1.30;;;9.80;60.30;;;;;;5028677;28;20052;-86
2021/12/25 12:54:07;;;;;;;3.58;1.27;;;9.60;59.70;;;;;;5009906;28;20037;-86
2021/12/25 12:56:33;;;;;;;1.98;0.90;;;9.60;59.50;;;;;;4998769;28;20086;-83
2021/12/25 12:58:59;;;;;;;4.40;1.15;;;9.50;59.10;;;;;;5021677;28;20060;-82
2021/12/25 13:01:26;;;;;;;5.82;1.58;;;9.60;59.40;;;;;;4997586;28;20053;-81
2021/12/25 13:03:58;;;;;;;3.05;1.42;;;9.70;58.70;;;;;;5013482;28;20084;-87
2021/12/25 13:06:29;;;;;;;4.70;1.73;;;9.90;57.70;;;;;;5016589;28;20028;-83
2021/12/25 13:08:55;;;;;;;3.38;1.38;;;10.20;57.00;;;;;;5016477;28;20041;-87
2021/12/25 13:11:32;;;;;;;5.88;1.80;;;10.30;56.30;;;;;;5017755;28;20465;-85
2021/12/25 13:14:09;;;;;;;5.20;1.60;;;10.40;55.10;;;;;;5001725;28;20044;-85
2021/12/25 13:16:39;;;;;;;5.53;1.67;;;10.70;54.50;;;;;;5019843;28;20036;-83
2021/12/25 13:19:06;;;;;;;4.70;1.27;;;10.80;53.60;;;;;;5022447;28;20086;-84
2021/12/25 13:21:33;;;;;;;2.08;1.08;;;10.90;53.40;;;;;;4999231;28;20048;-86
2021/12/25 13:24:06;;;;;;;2.70;1.02;;;10.90;53.00;;;;;;5015232;28;20065;-85
2021/12/25 13:26:41;;;;;;;3.72;1.27;;;10.70;52.30;;;;;;5033620;28;20036;-85
2021/12/25 13:29:08;;;;;;;4.07;1.63;;;10.20;53.00;;;;;;5021426;28;20098;-83
2021/12/25 13:31:38;;;;;;;3.47;1.45;;;9.90;53.50;;;;;;5033395;28;20488;-82
2021/12/25 13:34:19;;;;;;;3.17;1.05;;;9.70;53.80;;;;;;5007794;28;20745;-81
2021/12/25 13:36:47;;;;;;;7.28;2.08;;;9.60;53.50;;;;;;5018972;28;20037;-83
2021/12/25 13:39:17;;;;;;;3.63;1.30;;;9.50;53.50;;;;;;4993163;28;20045;-81
2021/12/25 13:41:43;;;;;;;3.85;1.50;;;9.20;53.00;;;;;;5008508;28;20140;-80
2021/12/25 13:44:12;;;;;;;4.53;1.98;;;9.00;53.50;;;;;;5030327;28;20124;-81
2021/12/25 13:46:48;;;;;;;3.20;1.58;;;8.70;53.70;;;;;;5012510;28;20127;-80
2021/12/25 13:49:31;;;;;;;3.42;1.30;;;8.40;53.50;;;;;;4998655;28;20145;-80
2021/12/25 13:52:12;;;;;;;3.28;1.92;;;8.00;53.70;;;;;;5029934;28;20135;-81
2021/12/25 13:54:40;;;;;;;4.65;1.30;;;7.60;54.40;;;;;;5009283;28;20487;-80
2021/12/25 13:57:17;;;;;;;1.75;1.02;;;7.20;55.40;;;;;;5015069;28;20044;-81
2021/12/25 13:59:48;;;;;;;2.72;1.50;;;6.80;55.90;;;;;;4988359;28;20067;-81
2021/12/25 14:02:20;;;;;;;4.13;1.15;;;6.50;56.10;;;;;;5012484;28;20060;-83
2021/12/25 14:04:47;;;;;;;3.72;1.40;;;6.00;56.70;;;;;;5011197;28;20123;-80
2021/12/25 14:07:17;;;;;;;2.63;1.30;;;5.70;57.10;;;;;;5007350;28;20052;-78
2021/12/25 14:10:12;;;;;;;2.70;1.40;;;5.40;57.50;;;;;;5013265;28;20046;-82
2021/12/25 14:12:41;;;;;;;3.00;1.40;;;5.00;57.60;;;;;;4998641;28;20381;-81
2021/12/25 14:15:08;;;;;;;3.53;1.45;;;4.60;58.50;;;;;;5018400;28;20054;-80
2021/12/25 14:17:35;;;;;;;2.75;1.30;;;4.50;59.10;;;;;;4995757;28;20508;-79
2021/12/25 14:20:20;;;;;;;4.10;1.80;;;4.20;59.40;;;;;;4999266;28;20048;-82
2021/12/25 14:22:48;;;;;;;3.95;1.50;;;3.90;59.30;;;;;;5015699;28;20053;-79
2021/12/25 14:25:25;;;;;;;3.33;1.70;;;3.80;60.20;;;;;;4996378;28;20123;-80
2021/12/25 14:28:11;;;;;;;3.35;1.98;;;3.60;60.40;;;;;;5014551;28;20063;-80
2021/12/25 14:30:43;;;;;;;3.03;1.45;;;3.40;60.60;;;;;;5047017;28;20405;-81